Latest Coastal Weather Observations for Smithton

IDT60701

Issued at 3:32 am EST Thursday 3 September 2015 (issued every 10 minutes, with the page automatically refreshed every 10 minutes)

About coastal observations | Map of coastal stations | Coastal observations for TAS | Marine services | Other Formats
Station Details ID: 091292 Name: SMITHTON AERODROME Lat: -40.83 Lon: 145.08 Height: 7.5 m
Data from the previous 72 hours. | See also: Recent months at Smithton
Date/Time
EST
Temp

°C
Wind Pressure Rain
since 9am
mm
Weather Cloud Vis
km
Sea
Height
m
Swell
Dir
 
Speed
knots
Gust
knots
hPa Trend Height
m
Period
s
Dir
03/03:30am 5.4 SSW 5 6 1009.5 - 0.0 - - - - - - -
03/03:00am 5.6 SSW 7 7 1009.5 - 0.0 - - - - - - -
03/02:30am 6.8 SSW 6 7 1009.6 - 0.0 - - - - - - -
03/02:00am 6.6 SSW 6 7 1010.0 - 0.0 - - - - - - -
03/01:30am 7.3 SSW 5 6 1010.1 - 0.0 - - - - - - -
03/01:00am 7.7 S 5 6 1010.0 - 0.0 - - - - - - -
03/12:30am 7.9 S 4 4 1010.0 - 0.0 - - - - - - -
03/12:00am 7.9 SSW 4 5 1010.2 - 0.0 - - - - - - -
 
Date/Time
EST
Temp

°C
Wind Pressure Rain
since 9am
mm
Weather Cloud Vis
km
Sea
Height
m
Swell
Dir
 
Speed
knots
Gust
knots
hPa Trend Height
m
Period
s
Dir
02/11:30pm 7.7 S 5 6 1010.3 - 0.0 - - - - - - -
02/11:00pm 7.6 E 4 5 1010.3 - 0.0 - - - - - - -
02/10:30pm 7.8 E 3 4 1010.3 - 0.0 - - - - - - -
02/10:00pm 7.9 E 3 4 1010.5 - 0.0 - - - - - - -
02/09:30pm 8.2 E 3 4 1010.6 - 0.0 - - - - - - -
02/09:00pm 8.6 E 4 5 1010.6 - 0.0 - - - - - - -
02/08:30pm 8.9 E 2 4 1010.5 - 0.0 - - - - - - -
02/08:00pm 8.8 E 4 5 1010.4 - 0.0 - - - - - - -
02/07:30pm 8.9 E 6 8 1010.1 - 0.0 - - - - - - -
02/07:00pm 8.4 E 7 9 1009.6 - 0.0 - - - - - - -
02/06:30pm 8.7 E 7 9 1009.5 - 0.0 - - - - - - -
02/06:00pm 9.5 E 9 12 1009.1 - 0.0 - - - - - - -
02/05:30pm 10.1 E 9 12 1009.0 - 0.0 - - - - - - -
02/05:00pm 11.0 ENE 10 15 1008.9 - 0.0 - - - - - - -
02/04:30pm 11.8 ENE 12 15 1009.0 - 0.0 - - - - - - -
02/04:00pm 11.9 ENE 10 14 1009.2 - 0.0 - - - - - - -
02/03:30pm 12.5 E 13 16 1009.5 - 0.0 - - - - - - -
02/03:00pm 12.3 ENE 13 18 1009.6 - 0.0 - - - - - - -
02/02:30pm 11.9 ENE 13 17 1009.9 - 0.0 - - - - - - -
02/02:00pm 12.0 ENE 14 18 1010.1 - 0.0 - - - - - - -
02/01:30pm 12.2 ENE 14 19 1010.5 - 0.0 - - - - - - -
02/01:00pm 12.2 E 13 17 1010.8 - 0.0 - - - - - - -
02/12:30pm 12.6 ENE 13 17 1011.2 - 0.0 - - - - - - -
02/12:00pm 11.5 ENE 14 17 1011.8 - 0.0 - - - - - - -
02/11:30am 11.9 ENE 15 22 1012.0 - 0.0 - - - - - - -
02/11:00am 11.9 E 13 17 1012.1 - 0.0 - - - - - - -
02/10:30am 10.8 E 13 17 1012.3 - 0.0 - - - - - - -
02/10:00am 9.7 E 12 16 1012.8 - 0.0 - - - - - - -
02/09:30am 9.4 E 11 15 1012.9 - 0.0 - - - - - - -
02/09:00am 9.2 E 10 15 1012.8 - 0.0 - - - - - - -
02/08:30am 8.6 E 10 13 1012.9 - 0.0 - - - - - - -
02/08:00am 6.6 E 9 13 1013.1 - 0.0 - - - - - - -
02/07:30am 5.1 E 7 8 1013.2 - 0.0 - - - - - - -
02/07:00am 4.2 ESE 7 8 1012.8 - 0.0 - - - - - - -
02/06:30am 3.6 E 8 9 1012.7 - 0.0 - - - - - - -
02/06:00am 2.8 E 6 8 1012.8 - 0.0 - - - - - - -
02/05:30am 3.1 ESE 7 8 1012.8 - 0.0 - - - - - - -
02/05:00am 3.1 ESE 7 8 1012.9 - 0.0 - - - - - - -
02/04:30am 3.2 ESE 7 8 1012.9 - 0.0 - - - - - - -
02/04:00am 2.1 ESE 7 8 1013.1 - 0.0 - - - - - - -
02/03:30am -0.2 ESE 6 6 1013.4 - 0.0 - - - - - - -
02/03:00am 0.5 S 3 4 1013.6 - 0.0 - - - - - - -
02/02:30am 0.3 CALM 0 0 1013.8 - 0.0 - - - - - - -
02/02:00am 0.4 S 2 3 1014.1 - 0.0 - - - - - - -
02/01:30am 1.1 S 1 3 1014.2 - 0.0 - - - - - - -
02/01:00am 2.5 S 4 5 1014.4 - 0.0 - - - - - - -
02/12:30am 2.8 NW 1 4 1014.4 - 0.0 - - - - - - -
02/12:00am 1.8 CALM 0 4 1014.4 - 0.0 - - - - - - -
 
Date/Time
EST
Temp

°C
Wind Pressure Rain
since 9am
mm
Weather Cloud Vis
km
Sea
Height
m
Swell
Dir
 
Speed
knots
Gust
knots
hPa Trend Height
m
Period
s
Dir
01/11:30pm 0.6 CALM 0 4 1014.6 - 0.0 - - - - - - -
01/11:00pm 0.5 CALM 0 0 1014.5 - 0.0 - - - - - - -
01/10:30pm 0.7 NW 1 3 1014.6 - 0.0 - - - - - - -
01/10:00pm 0.8 NW 4 5 1014.7 - 0.0 - - - - - - -
01/09:30pm 1.4 NW 4 5 1014.8 - 0.0 - - - - - - -
01/09:00pm 2.3 CALM 0 0 1014.7 - 0.0 - - - - - - -
01/08:30pm 2.0 CALM 0 0 1014.9 - 0.0 - - - - - - -
01/08:00pm 3.3 NW 1 5 1014.7 - 0.0 - - - - - - -
01/07:30pm 4.7 CALM 0 0 1014.7 - 0.0 - - - - - - -
01/07:00pm 4.8 NW 3 4 1014.4 - 0.0 - - - - - - -
01/06:30pm 5.6 NW 4 6 1013.9 - 0.0 - - - - - - -
01/06:00pm 6.4 NW 6 6 1013.8 - 0.0 - - - - - - -
01/05:30pm 8.5 NW 6 7 1013.5 - 0.0 - - - - - - -
01/05:00pm 9.4 NNW 7 9 1013.7 - 0.0 - - - - - - -
01/04:30pm 10.4 N 6 7 1013.5 - 0.0 - - - - - - -
01/04:00pm 11.4 NNW 8 11 1013.8 - 0.0 - - - - - - -
01/03:30pm 11.6 N 6 8 1014.1 - 0.0 - - - - - - -
01/03:00pm 11.9 NW 7 9 1014.3 - 0.0 - - - - - - -
01/02:30pm 11.9 NNE 7 10 1014.4 - 0.0 - - - - - - -
01/02:00pm 12.2 NNW 7 10 1014.8 - 0.0 - - - - - - -
01/01:30pm 11.7 N 6 8 1015.0 - 0.0 - - - - - - -
01/01:00pm 12.0 NW 7 11 1015.3 - 0.0 - - - - - - -
01/12:30pm 11.6 NW 9 12 1015.8 - 0.0 - - - - - - -
01/12:00pm 11.3 NW 5 8 1016.3 - 0.0 - - - - - - -
01/11:30am 11.5 NNW 6 9 1016.4 - 0.0 - - - - - - -
01/11:00am 11.3 N 5 7 1016.4 - 0.0 - - - - - - -
01/10:30am 9.9 WNW 4 6 1016.7 - 0.0 - - - - - - -
01/10:00am 8.8 SSW 4 5 1016.7 - 0.0 - - - - - - -
01/09:30am 6.7 S 4 5 1016.8 - 0.0 - - - - - - -
01/09:00am 4.5 SSW 4 5 1017.0 - 0.2 - - - - - - -
01/08:30am 2.4 S 6 7 1016.8 - 0.2 - - - - - - -
01/08:00am 1.4 S 4 6 1016.7 - 0.2 - - - - - - -
01/07:30am 0.0 S 6 6 1016.7 - 0.0 - - - - - - -
01/07:00am -0.5 S 4 5 1016.6 - 0.0 - - - - - - -
01/06:30am -2.2 S 5 5 1016.5 - 0.0 - - - - - - -
01/06:00am -1.9 S 5 6 1016.4 - 0.0 - - - - - - -
01/05:30am -1.0 S 4 5 1016.5 - 0.0 - - - - - - -
01/05:00am -1.0 S 4 5 1016.7 - 0.0 - - - - - - -
01/04:30am -1.4 S 5 5 1016.6 - 0.0 - - - - - - -
01/04:00am -0.4 S 4 4 1016.6 - 0.0 - - - - - - -
01/03:30am -0.4 S 6 7 1016.8 - 0.0 - - - - - - -
01/03:00am -1.1 S 5 6 1017.1 - 0.0 - - - - - - -
01/02:30am -0.1 S 6 7 1017.3 - 0.0 - - - - - - -
01/02:00am -0.5 S 6 6 1017.8 - 0.0 - - - - - - -
01/01:30am 0.1 S 6 6 1017.9 - 0.0 - - - - - - -
01/01:00am 0.0 S 6 7 1018.1 - 0.0 - - - - - - -
01/12:30am 0.8 S 5 5 1018.1 - 0.0 - - - - - - -
01/12:00am 1.2 SSW 7 7 1018.2 - 0.0 - - - - - - -
 
Date/Time
EST
Temp

°C
Wind Pressure Rain
since 9am
mm
Weather Cloud Vis
km
Sea
Height
m
Swell
Dir
 
Speed
knots
Gust
knots
hPa Trend Height
m
Period
s
Dir
31/11:30pm 0.6 SSW 5 6 1018.3 - 0.0 - - - - - - -
31/11:00pm 0.4 SSW 5 6 1018.5 - 0.0 - - - - - - -
31/10:30pm 0.9 S 3 5 1018.6 - 0.0 - - - - - - -
31/10:00pm 1.7 S 4 5 1018.7 - 0.0 - - - - - - -
31/09:30pm 1.6 S 6 6 1019.0 - 0.0 - - - - - - -
31/09:00pm 2.3 S 5 6 1019.1 - 0.0 - - - - - - -
31/08:30pm 2.5 S 4 4 1019.0 - 0.0 - - - - - - -
31/08:00pm 4.2 S 5 6 1018.7 - 0.0 - - - - - - -
31/07:30pm 5.3 W 4 5 1018.7 - 0.0 - - - - - - -
31/07:00pm 4.9 W 6 7 1018.4 - 0.0 - - - - - - -
31/06:30pm 5.6 W 7 7 1018.5 - 0.0 - - - - - - -
31/06:00pm 6.6 WNW 7 7 1018.4 - 0.0 - - - - - - -
31/05:30pm 8.1 WNW 8 9 1018.5 - 0.0 - - - - - - -
31/05:00pm 9.7 NW 7 9 1018.5 - 0.0 - - - - - - -
31/04:30pm 10.8 NNW 7 12 1018.7 - 0.0 - - - - - - -
31/04:00pm 11.2 NNW 5 8 1018.7 - 0.0 - - - - - - -
31/03:30pm 10.9 NNE 6 7 1018.8 - 0.0 - - - - - - -
31/03:00pm 11.2 NNE 6 8 1018.9 - 0.0 - - - - - - -
31/02:30pm 11.9 NNE 6 8 1018.9 - 0.0 - - - - - - -
31/02:00pm 11.4 N 5 8 1019.3 - 0.0 - - - - - - -
31/01:30pm 12.5 NNE 8 13 1019.7 - 0.0 - - - - - - -
31/01:00pm 11.9 NNE 7 10 1020.0 - 0.0 - - - - - - -
31/12:30pm 11.4 NNE 8 10 1020.4 - 0.0 - - - - - - -
31/12:00pm 11.1 NNE 8 11 1020.8 - 0.0 - - - - - - -
31/11:30am 11.6 NNE 9 11 1021.1 - 0.0 - - - - - - -
31/11:00am 11.1 NE 9 12 1021.2 - 0.0 - - - - - - -
31/10:30am 10.9 NE 9 14 1021.3 - 0.0 - - - - - - -
31/10:00am 10.0 ENE 5 8 1021.5 - 0.0 - - - - - - -
31/09:30am 6.8 S 3 5 1021.6 - 0.0 - - - - - - -
31/09:00am 4.8 S 4 5 1021.6 - 0.0 - - - - - - -
31/08:30am 3.4 S 5 6 1021.6 - 0.0 - - - - - - -
31/08:00am 1.8 S 5 6 1021.7 - 0.0 - - - - - - -
31/07:30am 0.0 S 5 6 1021.5 - 0.0 - - - - - - -
31/07:00am -0.8 S 5 6 1021.4 - 0.0 - - - - - - -
31/06:30am -0.6 S 5 6 1021.3 - 0.0 - - - - - - -
31/06:00am -1.4 S 5 5 1021.2 - 0.0 - - - - - - -
31/05:30am -0.6 S 4 5 1021.1 - 0.0 - - - - - - -
31/05:00am -0.9 S 4 5 1021.1 - 0.0 - - - - - - -
31/04:30am -0.3 S 1 3 1021.0 - 0.0 - - - - - - -
31/04:00am -0.4 S 4 5 1021.0 - 0.0 - - - - - - -

Other Formats:

Comma delimited format used in spreadsheet applications
http://www.bom.gov.au/fwo/IDT60701/IDT60701.94953.axf

JavaScript Object Notation format (JSON) in row-major order
http://www.bom.gov.au/fwo/IDT60701/IDT60701.94953.json